Portsmouth, Rhode Island
Current Conditions -  °F | °C
As of 10:53 AM on Sunday 28 Dec 2014 (Local Time) from KUUU Reporting Station
Overcast Overcast  
Wind Chill: 43°   Ceiling: 7000
Heat Index: 46°   Visibility: 10mi
Dew Point: 42°   Wind: 6mph
Humidity: 86%   Direction: NA
Pressure: 29.82"   Gusts: 18mph
Location:  41.6°N, 71.25°W
Report Text: KUUU 281553Z AUTO VRB05G16KT 10SM FEW047 OVC070 08/06 A2982 RMK AO2 RAE18 SLP098 P0000 T00780056
Loading
Personal Weather Stations






























Interactive Weather Map New forecast layout! Learn more

10-Day Weather Forecast

Advertisements
Track Severe Weather on mobile